createdAt,value
2019-03-23T00:01:22.520Z,34.48
2019-03-23T00:05:00.860Z,27.30
2019-03-23T00:06:51.916Z,29.90
2019-03-23T00:07:57.687Z,32.10
2019-03-23T00:09:08.465Z,32.85
2019-03-23T00:10:19.456Z,33.38
2019-03-23T00:11:25.757Z,28.17
2019-03-23T00:12:30.265Z,31.30
2019-03-23T00:13:38.198Z,32.10
2019-03-23T00:14:45.034Z,31.90
2019-03-23T00:15:48.587Z,31.93
2019-03-23T00:16:57.415Z,37.45
2019-03-23T00:18:10.239Z,31.20
2019-03-23T00:19:18.426Z,33.75
2019-03-23T00:20:27.738Z,37.17
2019-03-23T00:21:33.735Z,31.93
2019-03-23T00:22:38.972Z,35.75
2019-03-23T00:24:01.975Z,31.37
2019-03-23T00:25:10.148Z,33.53
2019-03-23T00:26:20.698Z,37.30
2019-03-23T00:27:26.888Z,33.10
2019-03-23T00:28:36.952Z,36.42
2019-03-23T00:29:42.840Z,32.45
2019-03-23T00:30:47.115Z,34.18
2019-03-23T00:31:55.727Z,34.20
2019-03-23T00:33:03.197Z,31.45
2019-03-23T00:34:09.033Z,31.48
2019-03-23T00:35:13.446Z,34.92
2019-03-23T00:36:19.981Z,32.70
2019-03-23T00:37:33.012Z,39.18
2019-03-23T00:38:38.451Z,34.27
2019-03-23T00:39:42.573Z,34.80
2019-03-23T00:40:48.601Z,35.88
2019-03-23T00:41:54.028Z,33.50
2019-03-23T00:42:59.787Z,35.45
2019-03-23T00:44:11.644Z,33.45
2019-03-23T00:45:14.328Z,34.05
2019-03-23T00:46:22.090Z,33.70
2019-03-23T00:47:42.192Z,28.77
2019-03-23T00:48:39.971Z,31.10
2019-03-23T00:49:45.117Z,32.78
2019-03-23T00:50:51.098Z,34.15
2019-03-23T00:51:57.064Z,33.35
2019-03-23T00:53:02.784Z,30.48
2019-03-23T00:54:08.852Z,35.55
2019-03-23T00:55:17.136Z,30.75
2019-03-23T00:56:28.740Z,29.23
2019-03-23T00:57:40.831Z,28.07
2019-03-23T00:58:47.274Z,29.65
2019-03-23T00:59:53.023Z,29.80
2019-03-23T01:00:59.681Z,30.30
2019-03-23T01:02:13.534Z,30.60
2019-03-23T01:04:25.296Z,33.25
2019-03-23T01:05:33.202Z,30.57
2019-03-23T01:06:37.604Z,28.80
2019-03-23T01:07:46.419Z,30.00
2019-03-23T01:08:50.754Z,31.82
2019-03-23T01:10:13.253Z,33.25
2019-03-23T01:11:34.928Z,32.53
2019-03-23T01:12:40.542Z,33.65
2019-03-23T01:13:47.586Z,29.72
2019-03-23T01:14:57.066Z,32.38
2019-03-23T01:16:17.075Z,32.23
2019-03-23T01:17:22.440Z,34.00
2019-03-23T01:18:32.180Z,29.05
2019-03-23T01:19:38.003Z,31.93
2019-03-23T01:20:49.610Z,30.30
2019-03-23T01:23:22.416Z,31.80
2019-03-23T01:23:32.490Z,28.35
2019-03-23T01:24:20.583Z,32.45
2019-03-23T01:25:31.442Z,31.87
2019-03-23T01:26:53.666Z,32.35
2019-03-23T01:28:09.716Z,33.05
2019-03-23T01:29:28.466Z,31.65
2019-03-23T01:31:51.386Z,29.50
2019-03-23T01:31:59.812Z,33.13
2019-03-23T01:33:10.710Z,28.87
2019-03-23T01:34:49.166Z,31.75
2019-03-23T01:35:59.813Z,28.15
2019-03-23T01:37:09.447Z,30.17
2019-03-23T01:38:27.382Z,35.40
2019-03-23T01:39:35.292Z,32.58
2019-03-23T01:40:48.133Z,29.98
2019-03-23T01:41:55.556Z,31.02
2019-03-23T01:43:08.219Z,32.25
2019-03-23T01:44:09.439Z,30.15
2019-03-23T01:45:23.946Z,32.33
2019-03-23T01:46:28.452Z,31.15
2019-03-23T01:47:37.708Z,29.95
2019-03-23T01:48:46.146Z,31.62
2019-03-23T01:49:50.553Z,32.35
2019-03-23T01:50:55.860Z,29.65
2019-03-23T01:52:05.732Z,30.62
2019-03-23T01:53:12.649Z,31.82
2019-03-23T01:54:19.368Z,28.70
2019-03-23T01:55:31.004Z,29.77
2019-03-23T01:56:39.902Z,31.70
2019-03-23T01:57:58.366Z,31.30
2019-03-23T01:59:14.096Z,32.35
2019-03-23T02:00:43.424Z,33.42
2019-03-23T02:01:31.360Z,31.62
2019-03-23T02:02:50.796Z,32.00
2019-03-23T02:03:58.786Z,32.78
2019-03-23T02:05:04.345Z,33.90
2019-03-23T02:06:09.879Z,34.05
2019-03-23T02:07:18.292Z,32.70
2019-03-23T02:08:22.638Z,31.68
2019-03-23T02:09:30.160Z,33.55
2019-03-23T02:10:34.514Z,34.13
2019-03-23T02:11:44.200Z,30.15
2019-03-23T02:12:50.048Z,32.90
2019-03-23T02:13:57.428Z,34.60
2019-03-23T02:15:05.831Z,31.62
2019-03-23T02:16:15.767Z,33.50
2019-03-23T02:17:20.782Z,33.28
2019-03-23T02:20:32.405Z,32.05
2019-03-23T02:21:52.898Z,33.08
2019-03-23T02:22:52.946Z,29.12
2019-03-23T02:24:06.167Z,31.70
2019-03-23T02:25:13.894Z,33.42
2019-03-23T02:26:17.517Z,30.52
2019-03-23T02:27:25.892Z,32.45
2019-03-23T02:29:00.366Z,33.65
2019-03-23T02:29:46.950Z,36.20
2019-03-23T02:30:45.060Z,30.32
2019-03-23T02:31:57.876Z,31.95
2019-03-23T02:33:08.672Z,33.33
2019-03-23T02:34:21.067Z,32.40
2019-03-23T02:35:33.793Z,30.20
2019-03-23T02:36:50.207Z,28.83
2019-03-23T02:39:23.559Z,32.73
2019-03-23T02:41:56.734Z,31.25
2019-03-23T02:43:04.083Z,35.50
2019-03-23T02:44:29.467Z,36.03
2019-03-23T02:47:03.864Z,31.00
2019-03-23T02:48:19.216Z,34.13
2019-03-23T02:49:30.632Z,37.93
2019-03-23T02:50:42.726Z,33.50
2019-03-23T02:51:51.974Z,34.50
2019-03-23T02:53:01.813Z,29.23
2019-03-23T02:54:12.334Z,31.70
2019-03-23T02:55:18.385Z,34.27
2019-03-23T02:56:29.515Z,33.85
2019-03-23T02:57:45.146Z,35.65
2019-03-23T02:58:52.195Z,30.62
2019-03-23T03:00:03.886Z,31.82
2019-03-23T03:01:17.840Z,31.70
2019-03-23T03:03:56.337Z,34.43
2019-03-23T03:07:40.770Z,33.35
2019-03-23T03:07:57.368Z,32.65
2019-03-23T03:09:06.055Z,37.30
2019-03-23T03:10:16.975Z,33.92
2019-03-23T03:11:34.778Z,39.58
2019-03-23T03:12:42.878Z,29.77
2019-03-23T03:13:45.281Z,32.42
2019-03-23T03:15:03.275Z,36.13
2019-03-23T03:16:24.595Z,28.90
2019-03-23T03:17:24.246Z,32.75
2019-03-23T03:18:42.180Z,32.88
2019-03-23T03:19:38.525Z,32.65
2019-03-23T03:21:11.677Z,31.93
2019-03-23T03:21:55.845Z,33.78
2019-03-23T03:23:26.323Z,35.45
2019-03-23T03:24:14.599Z,33.88
2019-03-23T03:25:31.155Z,36.10
2019-03-23T03:26:29.527Z,34.73
2019-03-23T03:27:38.153Z,32.98
2019-03-23T03:28:46.657Z,30.68
2019-03-23T03:29:57.334Z,34.55
2019-03-23T03:31:09.941Z,36.03
2019-03-23T03:32:36.225Z,37.65
2019-03-23T03:33:27.315Z,38.05
2019-03-23T03:34:35.195Z,38.02
2019-03-23T03:35:41.877Z,39.00
2019-03-23T03:36:49.141Z,38.30
2019-03-23T03:37:57.499Z,34.78
2019-03-23T03:39:06.008Z,35.58
2019-03-23T03:40:13.632Z,38.98
2019-03-23T03:41:19.441Z,36.88
2019-03-23T03:42:23.881Z,32.10
2019-03-23T03:43:30.978Z,33.92
2019-03-23T03:44:35.577Z,36.65
2019-03-23T03:45:42.914Z,34.27
2019-03-23T03:46:48.663Z,28.70
2019-03-23T03:47:53.094Z,32.40
2019-03-23T03:49:11.485Z,29.85
2019-03-23T03:50:07.877Z,27.67
2019-03-23T03:51:13.360Z,30.25
2019-03-23T03:52:17.609Z,31.25
2019-03-23T03:53:23.556Z,33.33
2019-03-23T03:54:29.534Z,30.52
2019-03-23T03:55:33.939Z,26.27
2019-03-23T03:56:39.718Z,31.12
2019-03-23T03:57:43.923Z,24.02
2019-03-23T03:58:49.489Z,28.92
2019-03-23T03:59:56.213Z,29.00
2019-03-23T04:01:08.356Z,30.37
2019-03-23T04:02:12.652Z,29.45
2019-03-23T04:03:19.946Z,26.62
2019-03-23T04:04:25.699Z,25.43
2019-03-23T04:05:34.922Z,26.60
2019-03-23T04:06:40.154Z,24.32
2019-03-23T04:08:18.746Z,27.20
2019-03-23T04:15:39.079Z,26.82
2019-03-23T04:16:08.101Z,24.80
2019-03-23T04:20:18.492Z,23.10
2019-03-23T04:25:57.210Z,23.30
2019-03-23T04:27:08.656Z,24.32
2019-03-23T04:28:20.774Z,27.45
2019-03-23T04:29:28.829Z,23.50
2019-03-23T04:30:38.438Z,23.42
2019-03-23T04:31:44.758Z,23.18
2019-03-23T04:32:56.008Z,28.67
2019-03-23T04:34:01.659Z,26.85
2019-03-23T04:35:06.848Z,25.97
2019-03-23T04:36:15.339Z,25.88
2019-03-23T04:37:32.583Z,25.25
2019-03-23T04:38:40.246Z,24.70
2019-03-23T04:39:42.978Z,22.87
2019-03-23T04:41:01.540Z,24.00
2019-03-23T04:41:57.785Z,24.50
2019-03-23T04:43:01.987Z,25.60
2019-03-23T04:44:06.397Z,25.10
2019-03-23T04:45:17.151Z,29.50
2019-03-23T04:46:22.703Z,24.72
2019-03-23T04:47:30.171Z,25.55
2019-03-23T04:48:40.007Z,25.82
2019-03-23T04:49:49.837Z,24.52
2019-03-23T04:50:55.085Z,25.23
2019-03-23T04:52:12.687Z,29.10
2019-03-23T04:53:19.983Z,25.72
2019-03-23T04:54:29.414Z,25.15
2019-03-23T04:55:33.711Z,27.17
2019-03-23T04:56:43.354Z,26.20
2019-03-23T04:57:53.465Z,25.55
2019-03-23T04:59:01.595Z,26.73
2019-03-23T05:00:12.933Z,25.45
2019-03-23T05:01:18.655Z,26.65
2019-03-23T05:03:57.109Z,24.72
2019-03-23T05:05:33.684Z,26.35
2019-03-23T05:07:45.853Z,21.75
2019-03-23T05:09:05.269Z,27.48
2019-03-23T05:11:39.959Z,27.30
2019-03-23T05:12:51.337Z,33.13
2019-03-23T05:13:58.749Z,24.57
2019-03-23T05:15:08.083Z,24.85
2019-03-23T05:16:18.303Z,21.25
2019-03-23T05:17:25.885Z,25.02
2019-03-23T05:18:51.076Z,30.72
2019-03-23T05:23:03.181Z,28.17
2019-03-23T05:24:16.525Z,27.87
2019-03-23T05:28:06.102Z,35.23
2019-03-23T05:29:13.877Z,29.82
2019-03-23T05:30:21.129Z,36.63
2019-03-23T05:31:31.396Z,37.85
2019-03-23T05:32:47.384Z,41.98
2019-03-23T05:34:04.737Z,44.53
2019-03-23T05:35:28.997Z,44.95
2019-03-23T05:37:08.817Z,49.63
2019-03-23T05:39:12.309Z,52.25
2019-03-23T05:57:32.423Z,46.92
2019-03-23T05:59:40.720Z,49.33
2019-03-23T06:01:01.513Z,46.83
2019-03-23T06:02:01.520Z,43.52
2019-03-23T06:03:16.602Z,47.30
2019-03-23T06:04:26.195Z,46.88
2019-03-23T06:05:51.363Z,45.48
2019-03-23T06:11:02.571Z,48.50
2019-03-23T06:12:47.318Z,48.10
2019-03-23T06:14:12.956Z,52.50
2019-03-23T06:15:20.653Z,50.38
2019-03-23T06:16:28.058Z,53.40
2019-03-23T06:18:23.361Z,44.40
2019-03-23T06:18:44.450Z,47.15
2019-03-23T06:21:16.184Z,51.85
2019-03-23T06:29:18.820Z,54.93
2019-03-23T06:30:12.171Z,54.63
2019-03-23T06:33:04.102Z,57.55
2019-03-23T06:34:14.446Z,57.50
2019-03-23T06:36:47.408Z,59.70
2019-03-23T06:37:54.355Z,57.17
2019-03-23T06:39:36.374Z,55.05
2019-03-23T06:40:46.589Z,52.70
2019-03-23T06:41:38.669Z,49.42
2019-03-23T06:42:45.800Z,58.80
2019-03-23T06:44:18.404Z,58.15
2019-03-23T06:45:19.188Z,55.20
2019-03-23T06:46:37.465Z,56.37
2019-03-23T06:49:12.525Z,49.73
2019-03-23T06:51:58.702Z,54.38
2019-03-23T06:53:19.115Z,55.25
2019-03-23T06:54:26.157Z,54.60
2019-03-23T06:55:26.517Z,47.60
2019-03-23T06:58:50.849Z,54.83
2019-03-23T07:00:02.959Z,51.98
2019-03-23T07:02:40.395Z,50.83
2019-03-23T07:03:53.371Z,45.48
2019-03-23T07:05:14.055Z,45.67
2019-03-23T07:09:19.245Z,42.60
2019-03-23T07:10:30.561Z,37.20
2019-03-23T07:13:55.905Z,29.10
2019-03-23T07:14:12.700Z,25.30
2019-03-23T07:15:20.303Z,21.02
2019-03-23T07:16:27.828Z,21.42
2019-03-23T07:17:52.522Z,17.90
2019-03-23T07:20:36.978Z,16.73
2019-03-23T07:21:46.189Z,19.23
2019-03-23T07:22:55.758Z,18.82
2019-03-23T07:24:02.581Z,15.85
2019-03-23T07:25:20.726Z,18.85
2019-03-23T07:26:25.120Z,20.55
2019-03-23T07:28:58.664Z,21.17
2019-03-23T07:30:05.885Z,49.95
2019-03-23T07:30:20.562Z,19.87
2019-03-23T07:31:50.703Z,23.60
2019-03-23T07:32:37.170Z,23.40
2019-03-23T07:33:36.270Z,18.25
2019-03-23T07:34:47.496Z,18.90
2019-03-23T07:36:01.632Z,20.60
2019-03-23T07:37:24.779Z,18.65
2019-03-23T07:38:32.689Z,21.55
2019-03-23T07:39:36.630Z,20.62
2019-03-23T07:40:43.853Z,19.65
2019-03-23T07:41:49.941Z,17.50
2019-03-23T07:42:56.965Z,19.95
2019-03-23T07:44:13.257Z,19.87
2019-03-23T07:45:23.358Z,20.80
2019-03-23T07:46:33.905Z,21.50
2019-03-23T07:47:38.512Z,20.77
2019-03-23T07:48:45.891Z,25.90
2019-03-23T07:49:57.156Z,21.65
2019-03-23T07:51:02.792Z,20.62
2019-03-23T07:52:16.287Z,18.95
2019-03-23T07:53:23.264Z,21.55
2019-03-23T07:54:30.320Z,20.27
2019-03-23T07:55:34.516Z,20.27
2019-03-23T07:56:38.654Z,17.40
2019-03-23T07:57:42.963Z,16.25
2019-03-23T07:58:49.862Z,15.00
2019-03-23T08:01:38.914Z,15.20
2019-03-23T08:01:40.414Z,17.12
2019-03-23T08:02:32.297Z,14.23
2019-03-23T08:03:41.952Z,14.70
2019-03-23T08:04:48.350Z,18.15
2019-03-23T08:05:57.061Z,14.00
2019-03-23T08:07:01.355Z,18.07
2019-03-23T08:08:11.673Z,16.12
2019-03-23T08:09:20.403Z,15.10
2019-03-23T08:10:32.403Z,16.05
2019-03-23T08:11:40.377Z,14.63
2019-03-23T08:12:47.556Z,14.13
2019-03-23T08:13:52.461Z,14.85
2019-03-23T08:15:03.223Z,14.80
2019-03-23T08:16:07.446Z,16.48
2019-03-23T08:17:13.127Z,12.37
2019-03-23T08:18:21.480Z,16.57
2019-03-23T08:19:25.602Z,12.00
2019-03-23T08:20:29.979Z,11.90
2019-03-23T08:21:35.638Z,17.10
2019-03-23T08:22:41.063Z,13.32
2019-03-23T08:23:49.420Z,13.68
2019-03-23T08:24:56.756Z,11.45
2019-03-23T08:26:01.747Z,10.20
2019-03-23T08:27:07.541Z,12.18
2019-03-23T08:28:14.515Z,12.05
2019-03-23T08:29:23.039Z,11.70
2019-03-23T08:30:27.188Z,12.60
2019-03-23T08:31:33.758Z,10.70
2019-03-23T08:32:39.624Z,11.05
2019-03-23T08:33:45.764Z,10.75
2019-03-23T08:34:50.594Z,11.65
2019-03-23T08:36:04.350Z,12.15
2019-03-23T08:37:10.386Z,8.20
2019-03-23T08:38:15.166Z,14.43
2019-03-23T08:39:20.854Z,12.13
2019-03-23T08:40:28.384Z,9.55
2019-03-23T08:41:32.566Z,12.82
2019-03-23T08:42:40.010Z,10.08
2019-03-23T08:43:46.850Z,9.80
2019-03-23T08:44:51.137Z,14.13
2019-03-23T08:45:58.193Z,11.75
2019-03-23T08:47:10.186Z,12.25
2019-03-23T08:48:15.543Z,14.00
2019-03-23T08:49:24.127Z,9.93
2019-03-23T08:50:29.546Z,9.73
2019-03-23T08:51:38.260Z,13.38
2019-03-23T08:52:44.870Z,9.00
2019-03-23T08:53:49.100Z,10.98
2019-03-23T08:54:56.963Z,9.83
2019-03-23T08:56:02.278Z,10.68
2019-03-23T08:57:09.928Z,10.85
2019-03-23T08:58:22.404Z,10.13
2019-03-23T08:59:29.844Z,7.78
2019-03-23T09:00:37.410Z,9.60
2019-03-23T09:01:44.666Z,7.78
2019-03-23T09:02:51.077Z,8.18
2019-03-23T09:03:59.995Z,8.50
2019-03-23T09:05:06.436Z,9.78
2019-03-23T09:06:10.629Z,8.05
2019-03-23T09:07:18.480Z,12.55
2019-03-23T09:08:28.677Z,13.18
2019-03-23T09:09:41.020Z,9.13
2019-03-23T09:10:45.398Z,7.30
2019-03-23T09:11:50.450Z,10.38
2019-03-23T09:13:00.436Z,9.18
2019-03-23T09:14:13.262Z,11.68
2019-03-23T09:15:15.726Z,10.82
2019-03-23T09:16:23.052Z,10.05
2019-03-23T09:17:57.115Z,8.80
2019-03-23T09:18:44.035Z,9.13
2019-03-23T09:19:53.478Z,10.03
2019-03-23T09:21:03.908Z,12.03
2019-03-23T09:22:03.586Z,9.45
2019-03-23T09:23:11.934Z,11.03
2019-03-23T09:24:16.866Z,11.53
2019-03-23T09:26:32.497Z,9.75
2019-03-23T09:27:45.548Z,10.50
2019-03-23T09:28:51.522Z,10.85
2019-03-23T09:30:08.048Z,9.88
2019-03-23T09:31:17.803Z,9.18
2019-03-23T09:32:22.010Z,8.88
2019-03-23T09:33:26.279Z,10.30
2019-03-23T09:34:34.580Z,11.22
2019-03-23T09:35:39.427Z,10.88
2019-03-23T09:36:44.470Z,11.35
2019-03-23T09:37:55.118Z,12.85
2019-03-23T09:38:59.317Z,10.80
2019-03-23T09:40:11.065Z,9.30
2019-03-23T09:41:16.812Z,41.48
2019-03-23T09:42:27.664Z,22.07
2019-03-23T09:43:37.794Z,14.90
2019-03-23T09:44:43.583Z,12.68
2019-03-23T09:45:50.571Z,17.48
2019-03-23T09:46:58.310Z,10.78
2019-03-23T09:48:02.591Z,12.33
2019-03-23T09:49:09.965Z,9.50
2019-03-23T09:50:17.102Z,11.08
2019-03-23T09:51:21.386Z,12.15
2019-03-23T09:52:26.298Z,9.38
2019-03-23T09:53:31.972Z,11.63
2019-03-23T09:54:38.334Z,10.78
2019-03-23T09:55:42.838Z,13.83
2019-03-23T09:56:48.200Z,12.30
2019-03-23T09:57:55.146Z,15.38
2019-03-23T09:58:59.572Z,19.00
2019-03-23T10:00:11.101Z,15.60
2019-03-23T10:01:18.887Z,15.25
2019-03-23T10:02:29.194Z,22.58
2019-03-23T10:03:34.952Z,13.10
2019-03-23T10:04:40.606Z,17.62
2019-03-23T10:05:45.069Z,12.82
2019-03-23T10:06:56.533Z,12.55
2019-03-23T10:07:56.558Z,9.28
2019-03-23T10:09:02.001Z,13.25
2019-03-23T10:10:20.940Z,15.75
2019-03-23T10:11:18.123Z,10.70
2019-03-23T10:12:24.677Z,10.70
2019-03-23T10:13:28.840Z,9.75
2019-03-23T10:14:34.754Z,11.48
2019-03-23T10:15:38.996Z,14.93
2019-03-23T10:16:46.012Z,9.45
2019-03-23T10:17:50.318Z,15.18
2019-03-23T10:19:01.304Z,10.85
2019-03-23T10:20:12.516Z,11.28
2019-03-23T10:21:16.094Z,9.05
2019-03-23T10:22:20.861Z,9.45
2019-03-23T10:23:26.551Z,10.93
2019-03-23T10:24:33.189Z,10.75
2019-03-23T10:25:43.584Z,8.23
2019-03-23T10:27:07.320Z,7.15
2019-03-23T10:27:52.490Z,13.03
2019-03-23T10:28:56.685Z,14.50
2019-03-23T10:30:02.547Z,9.28
2019-03-23T10:31:08.128Z,9.35
2019-03-23T10:32:13.770Z,9.98
2019-03-23T10:33:19.261Z,11.05
2019-03-23T10:34:27.240Z,9.50
2019-03-23T10:35:32.901Z,11.63
2019-03-23T10:42:07.813Z,6.80
2019-03-23T10:43:13.291Z,10.00
2019-03-23T10:44:22.523Z,12.47
2019-03-23T10:45:31.319Z,9.70
2019-03-23T10:46:35.589Z,7.92
2019-03-23T10:47:45.743Z,9.65
2019-03-23T10:48:51.553Z,11.53
2019-03-23T10:49:55.837Z,10.80
2019-03-23T10:51:02.792Z,13.30
2019-03-23T10:52:07.495Z,10.53
2019-03-23T10:53:15.621Z,10.65
2019-03-23T10:54:21.905Z,8.85
2019-03-23T10:55:26.213Z,11.30
2019-03-23T10:56:32.110Z,9.58
2019-03-23T10:57:36.332Z,10.60
2019-03-23T10:58:40.576Z,9.90
2019-03-23T10:59:45.926Z,12.00
2019-03-23T11:00:52.916Z,11.75
2019-03-23T11:01:58.106Z,12.28
2019-03-23T11:03:03.839Z,8.33
2019-03-23T11:04:08.092Z,8.00
2019-03-23T11:05:15.982Z,8.35
2019-03-23T11:06:20.243Z,9.83
2019-03-23T11:07:25.699Z,9.95
2019-03-23T11:08:29.998Z,9.85
2019-03-23T11:09:34.293Z,10.05
2019-03-23T11:10:43.345Z,11.20
2019-03-23T11:11:55.502Z,8.70
2019-03-23T11:13:00.593Z,12.10
2019-03-23T11:14:13.506Z,9.60
2019-03-23T11:15:24.002Z,9.65
2019-03-23T11:16:35.317Z,10.40
2019-03-23T11:17:45.513Z,10.20
2019-03-23T11:18:56.376Z,11.63
2019-03-23T11:20:12.767Z,9.78
2019-03-23T11:21:34.021Z,10.68
2019-03-23T11:22:31.027Z,10.28
2019-03-23T11:23:37.037Z,10.82
2019-03-23T11:24:42.723Z,12.10
2019-03-23T11:25:54.832Z,14.55
2019-03-23T11:27:02.012Z,10.72
2019-03-23T11:28:09.956Z,11.45
2019-03-23T11:29:21.345Z,9.95
2019-03-23T11:30:27.984Z,14.03
2019-03-23T11:33:12.129Z,13.93
2019-03-23T11:33:29.209Z,11.22
2019-03-23T11:37:18.925Z,11.12
2019-03-23T11:39:25.851Z,12.33
2019-03-23T11:39:57.547Z,12.18
2019-03-23T11:41:13.631Z,11.68
2019-03-23T11:42:28.848Z,11.48
2019-03-23T11:45:09.832Z,12.35
2019-03-23T11:45:47.403Z,11.60
2019-03-23T11:47:07.627Z,11.28
2019-03-23T11:47:21.541Z,12.15
2019-03-23T11:50:05.767Z,10.88
2019-03-23T11:50:52.121Z,9.58
2019-03-23T11:51:56.932Z,12.85
2019-03-23T11:53:05.875Z,9.45
2019-03-23T11:54:10.225Z,12.35
2019-03-23T11:55:32.935Z,11.85
2019-03-23T11:56:43.751Z,13.08
2019-03-23T11:57:48.474Z,10.38
2019-03-23T12:00:52.185Z,13.85
2019-03-23T12:01:53.427Z,16.10
2019-03-23T12:03:01.318Z,10.15
2019-03-23T12:04:21.300Z,11.73
2019-03-23T12:05:28.832Z,11.60
2019-03-23T12:06:41.467Z,12.23
2019-03-23T12:07:51.780Z,13.62
2019-03-23T12:10:13.071Z,9.40
2019-03-23T12:11:14.442Z,11.50
2019-03-23T12:12:25.125Z,8.73
2019-03-23T12:13:37.187Z,13.15
2019-03-23T12:14:45.311Z,12.75
2019-03-23T12:15:59.391Z,11.05
2019-03-23T12:17:24.587Z,16.57
2019-03-23T12:18:34.992Z,11.88
2019-03-23T12:20:47.107Z,14.20
2019-03-23T12:21:57.406Z,12.88
2019-03-23T12:23:04.275Z,12.45
2019-03-23T12:24:19.439Z,12.03
2019-03-23T12:25:20.910Z,12.75
2019-03-23T12:26:31.994Z,12.75
2019-03-23T12:27:37.834Z,13.43
2019-03-23T12:28:42.749Z,15.13
2019-03-23T12:29:49.527Z,14.90
2019-03-23T12:30:54.587Z,17.32
2019-03-23T12:32:03.007Z,13.80
2019-03-23T12:33:08.854Z,17.32
2019-03-23T12:34:14.793Z,17.07
2019-03-23T12:35:22.316Z,12.47
2019-03-23T12:36:28.068Z,15.00
2019-03-23T12:37:33.063Z,12.93
2019-03-23T12:38:39.866Z,12.10
2019-03-23T12:39:44.160Z,14.40
2019-03-23T12:40:51.208Z,15.72
2019-03-23T12:41:55.558Z,15.78
2019-03-23T12:44:18.689Z,16.27
2019-03-23T12:44:20.139Z,13.83
2019-03-23T12:45:27.710Z,17.17
2019-03-23T12:47:58.433Z,13.88
2019-03-23T12:49:08.654Z,13.50
2019-03-23T12:50:32.661Z,14.90
2019-03-23T12:51:43.628Z,15.53
2019-03-23T12:52:52.176Z,17.52
2019-03-23T12:54:00.545Z,13.30
2019-03-23T12:55:19.183Z,13.55
2019-03-23T12:56:35.675Z,15.85
2019-03-23T12:57:41.919Z,14.15
2019-03-23T12:58:50.816Z,15.50
2019-03-23T13:00:06.627Z,17.17
2019-03-23T13:01:13.279Z,16.10
2019-03-23T13:02:30.404Z,16.40
2019-03-23T13:03:31.476Z,15.38
2019-03-23T13:04:42.179Z,16.90
2019-03-23T13:05:46.511Z,15.60
2019-03-23T13:06:50.887Z,12.65
2019-03-23T13:07:58.979Z,16.45
2019-03-23T13:09:16.053Z,12.95
2019-03-23T13:10:28.376Z,14.38
2019-03-23T13:11:35.409Z,14.73
2019-03-23T13:12:50.428Z,12.63
2019-03-23T13:14:03.845Z,14.70
2019-03-23T13:15:13.543Z,16.12
2019-03-23T13:16:23.314Z,14.78
2019-03-23T13:17:32.850Z,14.53
2019-03-23T13:18:41.070Z,15.35
2019-03-23T13:19:45.574Z,13.72
2019-03-23T13:20:50.437Z,12.60
2019-03-23T13:21:59.468Z,18.15
2019-03-23T13:23:15.298Z,18.75
2019-03-23T13:24:22.701Z,13.80
2019-03-23T13:25:28.717Z,15.10
2019-03-23T13:26:32.921Z,12.60
2019-03-23T13:27:38.690Z,13.48
2019-03-23T13:28:46.254Z,17.27
2019-03-23T13:29:51.774Z,15.40
2019-03-23T13:31:01.217Z,13.38
2019-03-23T13:32:05.091Z,14.00
2019-03-23T13:33:12.338Z,17.35
2019-03-23T13:34:19.358Z,17.75
2019-03-23T13:35:25.885Z,16.95
2019-03-23T13:36:33.200Z,14.85
2019-03-23T13:37:40.356Z,13.00
2019-03-23T13:38:48.226Z,15.48
2019-03-23T13:39:54.362Z,15.25
2019-03-23T13:41:00.100Z,14.10
2019-03-23T13:42:17.437Z,14.47
2019-03-23T13:43:14.250Z,13.70
2019-03-23T13:44:20.501Z,13.40
2019-03-23T13:45:30.751Z,14.85
2019-03-23T13:46:36.451Z,13.05
2019-03-23T13:47:42.461Z,16.12
2019-03-23T13:48:48.286Z,17.92
2019-03-23T13:49:58.863Z,13.00
2019-03-23T13:51:04.935Z,13.90
2019-03-23T13:52:11.897Z,13.25
2019-03-23T13:53:17.828Z,12.88
2019-03-23T13:54:23.676Z,12.98
2019-03-23T13:55:31.082Z,10.70
2019-03-23T13:56:38.511Z,12.07
2019-03-23T13:57:46.410Z,15.30
2019-03-23T13:58:51.327Z,13.50
2019-03-23T13:59:57.296Z,15.50
2019-03-23T14:01:04.353Z,12.25
2019-03-23T14:02:17.606Z,14.18
2019-03-23T14:03:23.425Z,15.50
2019-03-23T14:04:29.648Z,13.32
2019-03-23T14:05:46.570Z,16.17
2019-03-23T14:06:52.103Z,13.13
2019-03-23T14:08:00.908Z,16.00
2019-03-23T14:09:15.564Z,15.00
2019-03-23T14:10:23.167Z,14.87
2019-03-23T14:11:28.093Z,14.20
2019-03-23T14:12:37.206Z,13.93
2019-03-23T14:13:44.837Z,22.15
2019-03-23T14:14:54.630Z,14.98
2019-03-23T14:16:00.548Z,13.62
2019-03-23T14:17:06.305Z,13.53
2019-03-23T14:18:17.556Z,12.35
2019-03-23T14:19:28.171Z,17.32
2019-03-23T14:20:33.642Z,15.88
2019-03-23T14:21:38.917Z,14.33
2019-03-23T14:22:46.263Z,13.05
2019-03-23T14:23:50.532Z,13.60
2019-03-23T14:24:54.795Z,17.10
2019-03-23T14:26:07.924Z,15.58
2019-03-23T14:27:12.215Z,15.35
2019-03-23T14:28:20.494Z,14.35
2019-03-23T14:29:30.344Z,15.53
2019-03-23T14:30:35.242Z,17.15
2019-03-23T14:31:44.177Z,14.40
2019-03-23T14:32:59.355Z,13.30
2019-03-23T14:34:00.023Z,15.98
2019-03-23T14:35:06.335Z,16.32
2019-03-23T14:36:13.099Z,16.52
2019-03-23T14:37:26.083Z,14.95
2019-03-23T14:38:55.278Z,14.60
2019-03-23T14:39:54.504Z,14.63
2019-03-23T14:41:08.497Z,13.40
2019-03-23T14:42:05.004Z,18.05
2019-03-23T14:43:42.985Z,17.02
2019-03-23T14:44:21.130Z,15.68
2019-03-23T14:45:32.309Z,15.43
2019-03-23T14:46:37.727Z,16.00
2019-03-23T14:47:56.953Z,15.30
2019-03-23T14:49:04.943Z,14.50
2019-03-23T14:50:12.481Z,18.52
2019-03-23T14:51:23.558Z,13.38
2019-03-23T14:52:36.371Z,12.33
2019-03-23T14:53:57.800Z,15.13
2019-03-23T14:55:16.304Z,14.33
2019-03-23T14:56:18.248Z,12.23
2019-03-23T14:57:31.067Z,16.02
2019-03-23T14:58:42.290Z,20.37
2019-03-23T14:59:51.375Z,14.18
2019-03-23T15:00:56.177Z,13.03
2019-03-23T15:02:07.591Z,15.25
2019-03-23T15:03:21.708Z,15.40
2019-03-23T15:04:27.918Z,15.60
2019-03-23T15:05:54.326Z,18.50
2019-03-23T15:07:01.832Z,14.70
2019-03-23T15:08:13.102Z,12.90
2019-03-23T15:09:26.417Z,14.60
2019-03-23T15:10:32.368Z,13.08
2019-03-23T15:11:43.529Z,15.55
2019-03-23T15:13:22.710Z,14.98
2019-03-23T15:15:19.176Z,14.05
2019-03-23T15:16:28.824Z,15.10
2019-03-23T15:17:48.184Z,12.07
2019-03-23T15:18:48.843Z,15.13
2019-03-23T15:19:57.820Z,12.43
2019-03-23T15:21:21.496Z,13.65
2019-03-23T15:22:28.767Z,12.98
2019-03-23T15:24:46.528Z,14.30
2019-03-23T15:26:01.346Z,14.23
2019-03-23T15:27:12.856Z,13.45
2019-03-23T15:28:13.949Z,11.10
2019-03-23T15:29:19.074Z,13.70
2019-03-23T15:31:52.182Z,11.90
2019-03-23T15:32:21.284Z,15.28
2019-03-23T15:34:30.128Z,14.60
2019-03-23T15:35:38.570Z,13.50
2019-03-23T15:37:12.576Z,12.53
2019-03-23T15:38:26.668Z,11.30
2019-03-23T15:39:27.888Z,12.20
2019-03-23T15:40:33.586Z,13.90
2019-03-23T15:41:55.318Z,13.53
2019-03-23T15:42:55.458Z,17.23
2019-03-23T15:44:22.489Z,18.57
2019-03-23T15:45:36.349Z,14.47
2019-03-23T15:46:52.068Z,10.43
2019-03-23T15:47:56.300Z,24.35
2019-03-23T15:49:02.219Z,24.35
2019-03-23T15:50:10.266Z,13.28
2019-03-23T15:51:19.281Z,10.18
2019-03-23T15:52:27.332Z,10.25
2019-03-23T15:53:39.030Z,11.10
2019-03-23T15:54:44.868Z,10.03
2019-03-23T15:55:55.471Z,11.22
2019-03-23T15:57:01.474Z,10.40
2019-03-23T15:58:14.793Z,11.38
2019-03-23T15:59:35.870Z,9.88
2019-03-23T16:01:50.650Z,8.05
2019-03-23T16:02:59.357Z,12.25
2019-03-23T16:04:06.822Z,10.03
2019-03-23T16:05:16.870Z,11.30
2019-03-23T16:06:39.424Z,8.28
2019-03-23T16:07:48.660Z,11.70
2019-03-23T16:08:55.372Z,9.23
2019-03-23T16:10:01.839Z,10.20
2019-03-23T16:11:14.959Z,8.88
2019-03-23T16:12:34.448Z,8.78
2019-03-23T16:13:55.129Z,9.83
2019-03-23T16:15:00.692Z,10.18
2019-03-23T16:16:07.733Z,14.23
2019-03-23T16:17:27.916Z,12.78
2019-03-23T16:18:45.037Z,10.03
2019-03-23T16:19:45.995Z,9.75
2019-03-23T16:22:19.258Z,10.53
2019-03-23T16:23:31.749Z,12.58
2019-03-23T16:24:42.191Z,10.28
2019-03-23T16:27:05.045Z,9.95
2019-03-23T16:28:13.662Z,11.50
2019-03-23T16:29:20.556Z,12.07
2019-03-23T16:30:37.230Z,10.10
2019-03-23T16:31:44.598Z,10.10
2019-03-23T16:32:51.698Z,10.75
2019-03-23T16:34:00.309Z,12.93
2019-03-23T16:35:08.995Z,11.25
2019-03-23T16:36:14.966Z,13.13
2019-03-23T16:37:35.033Z,9.85
2019-03-23T16:38:46.203Z,9.50
2019-03-23T16:40:04.692Z,12.47
2019-03-23T16:41:18.162Z,10.28
2019-03-23T16:42:44.685Z,13.50